Time;durP1;ratioP1;P1;durP2;ratioP2;P2;SDS_P1;SDS_P2;PMS_P1;PMS_P2;Temp;Humidity;BMP_temperature;BMP_pressure;BME280_temperature;BME280_humidity;BME280_pressure;Samples;Min_cycle;Max_cycle;Signal;HPM_P1;HPM_P2
2023/05/18 00:00:45;;;;;;;5.05;2.33;;;;;;;5.59;100.00;101834.56;6258932;28;20163;-92
2023/05/18 00:03:47;;;;;;;7.35;2.67;;;;;;;5.54;100.00;101829.59;6250003;28;20041;-93
2023/05/18 00:06:57;;;;;;;6.65;2.40;;;;;;;5.48;100.00;101824.69;6241849;28;20536;-93
2023/05/18 00:10:00;;;;;;;7.40;3.17;;;;;;;5.46;100.00;101829.03;6260160;28;20415;-92
2023/05/18 00:13:04;;;;;;;7.70;2.63;;;;;;;5.48;100.00;101824.69;6260676;28;20037;-93
2023/05/18 00:16:06;;;;;;;7.85;2.75;;;;;;;5.43;100.00;101824.00;6238756;28;20050;-92
2023/05/18 00:19:08;;;;;;;7.18;2.65;;;;;;;5.39;100.00;101823.28;6250382;28;20123;-92
2023/05/18 00:22:16;;;;;;;5.80;2.72;;;;;;;5.42;100.00;101824.09;6257883;28;20094;-92
2023/05/18 00:25:19;;;;;;;6.20;2.70;;;;;;;5.33;100.00;101826.06;6257962;28;20536;-92
2023/05/18 00:28:21;;;;;;;3.38;2.50;;;;;;;5.38;100.00;101841.31;6258877;28;20044;-93
2023/05/18 00:31:23;;;;;;;3.38;2.22;;;;;;;5.31;100.00;101842.41;6257859;28;20491;-92
2023/05/18 00:34:25;;;;;;;4.82;2.25;;;;;;;5.20;100.00;101835.09;6258191;28;20055;-92
2023/05/18 00:37:26;;;;;;;3.97;1.95;;;;;;;5.18;100.00;101830.00;6256083;28;20546;-92
2023/05/18 00:40:28;;;;;;;6.40;2.20;;;;;;;5.18;100.00;101829.19;6260532;28;20025;-92
2023/05/18 00:43:31;;;;;;;5.90;2.72;;;;;;;5.18;100.00;101830.00;6251351;28;20049;-92
2023/05/18 00:46:33;;;;;;;7.00;2.40;;;;;;;5.17;100.00;101825.78;6253462;28;20444;-92
2023/05/18 00:49:36;;;;;;;5.78;2.83;;;;;;;5.10;100.00;101838.91;6260568;28;20063;-92
2023/05/18 00:52:38;;;;;;;7.68;2.85;;;;;;;5.09;100.00;101834.63;6254138;28;20061;-92
2023/05/18 00:55:40;;;;;;;6.60;2.60;;;;;;;5.05;100.00;101844.19;6243583;28;20087;-91
2023/05/18 00:58:43;;;;;;;6.50;2.50;;;;;;;5.03;100.00;101837.44;6246321;28;20037;-92
2023/05/18 01:01:45;;;;;;;4.43;2.05;;;;;;;5.00;100.00;101837.53;6261080;28;20037;-92
2023/05/18 01:04:48;;;;;;;6.88;2.42;;;;;;;5.00;100.00;101838.38;6259104;28;20411;-92
2023/05/18 01:07:50;;;;;;;7.25;2.70;;;;;;;4.97;100.00;101841.88;6251718;28;20530;-91
2023/05/18 01:11:09;;;;;;;5.82;2.55;;;;;;;4.93;100.00;101845.44;6256250;28;20056;-92
2023/05/18 01:14:12;;;;;;;5.57;2.33;;;;;;;4.85;100.00;101833.78;6256779;28;20052;-92
2023/05/18 01:17:20;;;;;;;7.57;2.45;;;;;;;4.87;100.00;101848.22;6259683;28;20117;-93
2023/05/18 01:20:44;;;;;;;7.20;2.53;;;;;;;4.85;100.00;101844.88;6259806;28;20040;-92
2023/05/18 01:24:08;;;;;;;6.20;2.85;;;;;;;4.80;100.00;101848.47;6255711;28;20507;-92
2023/05/18 01:27:15;;;;;;;6.07;2.63;;;;;;;4.86;100.00;101841.41;6256926;28;20037;-92
2023/05/18 01:30:18;;;;;;;7.70;2.17;;;;;;;4.84;100.00;101850.03;6256169;28;20040;-92
2023/05/18 01:33:21;;;;;;;3.90;2.70;;;;;;;4.84;100.00;101842.34;6249077;28;20049;-92
2023/05/18 01:36:23;;;;;;;7.70;3.08;;;;;;;4.80;100.00;101848.47;6257438;28;20488;-92
2023/05/18 01:39:27;;;;;;;8.60;3.22;;;;;;;4.77;100.00;101840.88;6232218;28;20071;-92
2023/05/18 01:42:33;;;;;;;5.25;2.38;;;;;;;4.69;100.00;101851.38;6254767;28;20604;-92
2023/05/18 01:45:38;;;;;;;6.80;2.72;;;;;;;4.63;100.00;101851.59;6255663;28;20052;-92
2023/05/18 01:48:47;;;;;;;6.55;2.90;;;;;;;4.61;100.00;101849.06;6231980;28;20463;-92
2023/05/18 01:51:50;;;;;;;5.78;2.60;;;;;;;4.51;100.00;101858.78;6242512;28;20148;-92
2023/05/18 01:54:56;;;;;;;9.30;2.95;;;;;;;4.50;100.00;101857.13;6258122;28;20040;-92
2023/05/18 01:57:59;;;;;;;6.35;2.55;;;;;;;4.48;100.00;101860.63;6245783;28;20025;-92
2023/05/18 02:01:02;;;;;;;10.48;2.53;;;;;;;4.36;100.00;101856.72;6255399;28;20044;-92
2023/05/18 02:04:10;;;;;;;3.38;2.35;;;;;;;4.40;100.00;101853.19;6236171;28;20083;-92
2023/05/18 02:07:12;;;;;;;5.50;2.40;;;;;;;4.36;100.00;101856.72;6238872;28;20055;-92
2023/05/18 02:10:16;;;;;;;6.25;2.63;;;;;;;4.32;100.00;101853.44;6253503;28;20126;-92
2023/05/18 02:13:18;;;;;;;7.20;2.72;;;;;;;4.36;100.00;101851.59;6246794;28;20076;-92
2023/05/18 02:16:20;;;;;;;3.90;2.35;;;;;;;4.35;100.00;101849.94;6246554;28;20103;-92
2023/05/18 02:19:24;;;;;;;6.55;2.45;;;;;;;4.41;100.00;101849.72;6254526;28;20044;-92
2023/05/18 02:22:27;;;;;;;5.63;2.38;;;;;;;4.39;100.00;101853.22;6249291;28;20503;-92
2023/05/18 02:25:30;;;;;;;4.30;2.70;;;;;;;4.35;100.00;101849.94;6251938;28;20044;-92
2023/05/18 02:28:33;;;;;;;5.07;2.17;;;;;;;4.31;100.00;101846.59;6247809;28;20075;-92
2023/05/18 02:31:35;;;;;;;6.03;2.85;;;;;;;4.30;100.00;101839.81;6252873;28;20548;-92
2023/05/18 02:34:40;;;;;;;3.50;2.40;;;;;;;4.26;100.00;101845.06;6247243;28;20103;-92
2023/05/18 02:37:43;;;;;;;4.22;2.60;;;;;;;4.19;100.00;101843.59;6246331;28;20045;-92
2023/05/18 02:40:45;;;;;;;5.07;2.28;;;;;;;4.17;100.00;101847.91;6248778;28;20048;-92
2023/05/18 02:43:47;;;;;;;12.30;2.70;;;;;;;4.17;100.00;101851.31;6249547;28;20275;-92
2023/05/18 02:46:49;;;;;;;5.20;2.83;;;;;;;4.15;100.00;101857.38;6245432;28;20060;-93
2023/05/18 02:49:51;;;;;;;3.25;2.40;;;;;;;4.17;100.00;101855.59;6247504;28;20053;-92
2023/05/18 02:52:54;;;;;;;5.18;2.67;;;;;;;4.09;100.00;101856.69;6257336;28;20044;-93
2023/05/18 02:55:57;;;;;;;5.35;2.53;;;;;;;4.08;100.00;101855.00;6256281;28;20098;-92
2023/05/18 02:59:07;;;;;;;5.80;2.80;;;;;;;4.07;100.00;101861.03;6242442;28;20057;-92
2023/05/18 03:02:16;;;;;;;6.95;2.58;;;;;;;4.05;100.00;101855.13;6257436;28;20486;-92
2023/05/18 03:05:22;;;;;;;5.65;2.30;;;;;;;4.07;100.00;101861.03;6256086;28;20065;-93
2023/05/18 03:08:25;;;;;;;4.88;2.45;;;;;;;4.02;100.00;101859.47;6249327;28;20052;-92
2023/05/18 03:11:28;;;;;;;4.75;2.53;;;;;;;4.02;100.00;101859.47;6255100;28;20530;-93
2023/05/18 03:14:30;;;;;;;5.90;2.67;;;;;;;4.02;100.00;101859.47;6251431;28;20562;-92
2023/05/18 03:17:32;;;;;;;4.95;2.70;;;;;;;3.97;100.00;101857.03;6251990;28;20045;-92
2023/05/18 03:20:36;;;;;;;3.92;2.55;;;;;;;3.98;100.00;101870.72;6245248;28;20064;-92
2023/05/18 03:23:39;;;;;;;7.97;2.63;;;;;;;3.97;100.00;101864.72;6246623;28;20064;-92
2023/05/18 03:26:43;;;;;;;7.53;2.60;;;;;;;3.94;100.00;101866.56;6256296;28;20506;-92
2023/05/18 03:29:45;;;;;;;6.07;2.63;;;;;;;3.94;100.00;101864.81;6252536;28;20408;-93
2023/05/18 03:32:48;;;;;;;6.70;2.83;;;;;;;3.98;100.00;101871.56;6257457;28;20114;-93
2023/05/18 03:35:51;;;;;;;6.07;2.42;;;;;;;3.89;100.00;101859.84;6229455;28;20065;-92
2023/05/18 03:38:53;;;;;;;7.60;3.05;;;;;;;3.94;100.00;101869.94;6251256;28;20044;-93
2023/05/18 03:41:56;;;;;;;6.68;2.53;;;;;;;3.92;100.00;101869.16;6248095;28;20423;-93
2023/05/18 03:44:58;;;;;;;5.38;2.83;;;;;;;3.98;100.00;101868.16;6243327;28;20501;-93
2023/05/18 03:48:00;;;;;;;5.18;2.40;;;;;;;3.95;100.00;101866.53;6239511;28;20423;-93
2023/05/18 03:51:04;;;;;;;6.95;2.65;;;;;;;3.97;100.00;101869.03;6233089;28;20515;-93
2023/05/18 03:54:07;;;;;;;7.32;2.60;;;;;;;4.00;100.00;101872.34;6246601;28;20134;-93
2023/05/18 03:57:10;;;;;;;8.32;2.70;;;;;;;4.04;100.00;101868.78;6246995;28;20072;-92
2023/05/18 04:00:12;;;;;;;8.75;2.50;;;;;;;4.03;100.00;101874.81;6250388;28;20056;-92
2023/05/18 04:03:23;;;;;;;6.30;2.40;;;;;;;4.03;100.00;101881.66;6260451;28;20052;-92
2023/05/18 04:06:25;;;;;;;7.13;2.50;;;;;;;4.04;100.00;101878.22;6238556;28;20044;-92
2023/05/18 04:09:28;;;;;;;4.43;2.38;;;;;;;4.04;100.00;101876.47;6246884;28;20064;-92
2023/05/18 04:12:30;;;;;;;8.60;3.08;;;;;;;4.12;100.00;101881.38;6258188;28;20051;-93
2023/05/18 04:15:32;;;;;;;4.13;2.40;;;;;;;4.10;100.00;101884.00;6250808;28;20046;-93
2023/05/18 04:18:35;;;;;;;2.88;2.33;;;;;;;4.22;100.00;101884.50;6250902;28;20511;-93
2023/05/18 04:21:38;;;;;;;7.72;2.42;;;;;;;4.24;100.00;101892.97;6257951;28;20044;-92
2023/05/18 04:24:41;;;;;;;5.88;2.60;;;;;;;4.31;100.00;101892.75;6255503;28;20140;-93
2023/05/18 04:27:44;;;;;;;4.68;2.42;;;;;;;4.34;100.00;101893.53;6259281;28;20041;-93
2023/05/18 04:30:46;;;;;;;4.82;2.55;;;;;;;4.35;100.00;101895.19;6260848;28;20466;-92
2023/05/18 04:33:50;;;;;;;5.90;2.58;;;;;;;4.42;100.00;101901.81;6254057;28;20048;-92
2023/05/18 04:36:55;;;;;;;4.47;2.25;;;;;;;4.47;100.00;101898.25;6259033;28;20037;-92
2023/05/18 04:40:00;;;;;;;6.70;2.63;;;;;;;4.52;100.00;101901.50;6257922;28;20398;-92
2023/05/18 04:43:05;;;;;;;4.82;2.60;;;;;;;4.56;100.00;101896.28;6239261;28;20092;-93
2023/05/18 04:46:08;;;;;;;4.15;2.45;;;;;;;4.61;100.00;101904.66;6233907;28;20522;-93
2023/05/18 04:49:10;;;;;;;3.83;2.55;;;;;;;4.64;100.00;101907.94;6263874;28;20095;-93
2023/05/18 04:52:13;;;;;;;6.10;2.20;;;;;;;4.69;100.00;101906.06;6257444;28;20048;-92
2023/05/18 04:55:26;;;;;;;5.20;2.55;;;;;;;4.76;100.00;101909.28;6257701;28;20404;-93
2023/05/18 04:58:40;;;;;;;5.03;2.67;;;;;;;4.83;100.00;101905.63;6259615;28;20471;-92
2023/05/18 05:01:43;;;;;;;5.88;2.63;;;;;;;4.91;100.00;101905.38;6249203;28;20638;-92
2023/05/18 05:04:45;;;;;;;7.10;2.75;;;;;;;5.01;100.00;101906.75;6238175;28;20052;-92
2023/05/18 05:07:54;;;;;;;8.52;3.17;;;;;;;5.06;100.00;101904.03;6250161;28;20049;-92
2023/05/18 05:10:56;;;;;;;6.15;2.65;;;;;;;5.14;100.00;101912.31;6251135;28;20403;-93
2023/05/18 05:14:01;;;;;;;6.10;2.83;;;;;;;5.20;100.00;101906.97;6249119;28;20102;-92
2023/05/18 05:17:03;;;;;;;5.82;3.22;;;;;;;5.27;100.00;101916.16;6259235;28;20150;-92
2023/05/18 05:20:06;;;;;;;7.43;3.30;;;;;;;5.31;100.00;101922.00;6250984;28;20102;-92
2023/05/18 05:23:09;;;;;;;4.28;2.83;;;;;;;5.44;100.00;101915.56;6242519;28;20499;-92
2023/05/18 05:26:14;;;;;;;5.47;2.90;;;;;;;5.51;100.00;101922.16;6223562;28;20071;-92
2023/05/18 05:29:18;;;;;;;5.45;3.13;;;;;;;5.57;100.00;101915.97;6241393;28;20034;-92
2023/05/18 05:32:20;;;;;;;5.10;2.67;;;;;;;5.67;100.00;101922.47;6239889;28;20045;-92
2023/05/18 05:35:23;;;;;;;8.43;3.10;;;;;;;5.74;100.00;101917.91;6235797;28;20037;-92
2023/05/18 05:38:25;;;;;;;10.68;3.13;;;;;;;5.79;100.00;101919.44;6259487;28;20037;-92
2023/05/18 05:41:28;;;;;;;8.70;3.70;;;;;;;5.90;100.00;101918.22;6258258;28;20512;-92
2023/05/18 05:44:33;;;;;;;11.73;3.78;;;;;;;6.00;100.00;101914.44;6259319;28;20407;-92
2023/05/18 05:47:36;;;;;;;9.57;3.65;;;;;;;6.09;100.00;101916.66;6259250;28;20060;-92
2023/05/18 05:50:38;;;;;;;5.43;3.33;;;;;;;6.14;100.00;101927.59;6259450;28;20088;-92
2023/05/18 05:53:42;;;;;;;4.22;2.97;;;;;;;6.21;100.00;101920.47;6254434;28;20072;-92
2023/05/18 05:56:44;;;;;;;6.97;3.45;;;;;;;6.28;100.00;101932.22;6253373;28;20331;-92
2023/05/18 05:59:47;;;;;;;4.95;3.22;;;;;;;6.35;100.00;101930.25;6246824;28;20098;-92
2023/05/18 06:02:49;;;;;;;6.43;3.67;;;;;;;6.42;100.00;101939.41;6259865;28;20499;-92
2023/05/18 06:05:59;;;;;;;11.48;4.00;;;;;;;6.50;100.00;101936.53;6228826;28;20053;-92
2023/05/18 06:09:05;;;;;;;6.65;3.38;;;;;;;6.59;100.00;101943.91;6251445;28;20043;-92
2023/05/18 06:12:08;;;;;;;9.43;3.55;;;;;;;6.68;100.00;101943.50;6259303;28;20538;-92
2023/05/18 06:15:12;;;;;;;9.38;3.67;;;;;;;6.76;100.00;101932.91;6245272;28;20037;-92
2023/05/18 06:18:14;;;;;;;9.10;3.55;;;;;;;6.82;100.00;101942.97;6249036;28;20052;-92
2023/05/18 06:21:18;;;;;;;8.95;3.63;;;;;;;6.88;100.00;101935.84;6253207;28;20052;-92
2023/05/18 06:24:21;;;;;;;5.15;2.75;;;;;;;7.00;100.00;101937.06;6253058;28;20048;-92
2023/05/18 06:27:47;;;;;;;8.07;2.67;;;;;;;7.09;100.00;101938.44;6180893;28;20161;-92
2023/05/18 06:31:08;;;;;;;5.28;2.33;;;;;;;7.21;100.00;101937.09;6178004;28;20078;-92
2023/05/18 06:34:19;;;;;;;6.30;2.38;;;;;;;7.25;100.00;101941.19;6157313;28;20089;-92
2023/05/18 06:37:25;;;;;;;6.80;2.83;;;;;;;7.32;100.00;101943.44;6179406;28;20629;-92
2023/05/18 06:40:28;;;;;;;6.40;2.25;;;;;;;7.39;100.00;101951.75;6178147;28;20046;-92
2023/05/18 06:43:30;;;;;;;8.60;2.25;;;;;;;7.47;100.00;101952.25;6162397;28;20382;-92
2023/05/18 06:46:53;;;;;;;7.15;2.70;;;;;;;7.55;100.00;101957.06;6109564;29;20063;-91
2023/05/18 06:50:01;;;;;;;8.10;3.13;;;;;;;7.62;100.00;101948.19;6110566;29;20058;-92
2023/05/18 06:53:05;;;;;;;5.97;2.60;;;;;;;7.65;100.00;101955.81;6110835;29;20052;-91
2023/05/18 06:56:11;;;;;;;11.70;2.78;;;;;;;7.72;100.00;101954.59;6106389;29;20142;-92
2023/05/18 06:59:16;;;;;;;9.25;3.05;;;;;;;7.76;100.00;101957.91;6097680;29;20051;-92
2023/05/18 07:02:20;;;;;;;8.65;2.53;;;;;;;7.81;100.00;101958.53;6106456;29;20075;-91
2023/05/18 07:05:23;;;;;;;7.75;2.53;;;;;;;7.88;100.00;101952.19;6130923;28;20042;-91
2023/05/18 07:08:25;;;;;;;8.57;3.25;;;;;;;7.97;100.00;101962.09;6149887;28;20734;-91
2023/05/18 07:11:27;;;;;;;6.90;2.90;;;;;;;8.06;100.00;101962.59;6112226;28;20043;-92
2023/05/18 07:14:30;;;;;;;6.43;3.17;;;;;;;8.12;100.00;101958.00;6141698;28;20566;-92
2023/05/18 07:17:32;;;;;;;7.38;2.78;;;;;;;8.18;100.00;101955.13;6142864;28;20638;-91
2023/05/18 07:20:35;;;;;;;6.00;2.80;;;;;;;8.26;100.00;101952.19;6142511;28;20705;-92
2023/05/18 07:23:37;;;;;;;8.70;2.88;;;;;;;8.27;100.00;101956.44;6193420;28;20075;-92
2023/05/18 07:26:39;;;;;;;5.65;2.67;;;;;;;8.40;100.00;101955.00;6249514;28;20037;-92
2023/05/18 07:29:41;;;;;;;6.05;2.65;;;;;;;8.52;100.00;101960.47;6241656;28;20430;-92
2023/05/18 07:32:44;;;;;;;7.85;3.30;;;;;;;8.59;100.00;101960.13;6249587;28;20404;-91
2023/05/18 07:35:49;;;;;;;6.28;2.78;;;;;;;8.71;100.00;101973.34;6258014;28;20033;-91
2023/05/18 07:38:53;;;;;;;8.82;3.15;;;;;;;8.75;100.00;101965.41;6254381;28;20048;-92
2023/05/18 07:41:56;;;;;;;8.55;3.30;;;;;;;8.80;100.00;101963.44;6259817;28;20673;-93
2023/05/18 07:44:58;;;;;;;7.28;3.03;;;;;;;8.88;100.00;101959.63;6254370;28;20111;-91
2023/05/18 07:48:00;;;;;;;6.90;3.88;;;;;;;9.04;100.00;101965.72;6257354;28;20356;-92
2023/05/18 07:51:06;;;;;;;7.20;3.17;;;;;;;9.12;100.00;101961.03;6255217;28;20045;-92
2023/05/18 07:54:09;;;;;;;10.30;3.67;;;;;;;9.25;100.00;101958.66;6252665;28;20064;-92
2023/05/18 07:57:11;;;;;;;13.00;3.78;;;;;;;9.40;100.00;101969.97;6255792;28;20049;-92
2023/05/18 08:00:16;;;;;;;7.68;3.58;;;;;;;9.52;100.00;101958.19;6257382;28;20041;-92
2023/05/18 08:03:20;;;;;;;8.90;3.35;;;;;;;9.61;100.00;101957.69;6231989;28;20099;-92
2023/05/18 08:06:22;;;;;;;4.80;2.97;;;;;;;9.73;100.00;101951.03;6258641;28;20037;-92
2023/05/18 08:09:28;;;;;;;6.32;3.35;;;;;;;9.86;100.00;101952.91;6250639;28;20056;-92
2023/05/18 08:12:32;;;;;;;7.03;3.33;;;;;;;10.02;100.00;101955.50;6253158;28;20045;-91
2023/05/18 08:15:36;;;;;;;6.47;3.40;;;;;;;10.22;100.00;101956.19;6253394;28;20325;-91
2023/05/18 08:18:38;;;;;;;8.02;3.30;;;;;;;10.28;100.00;101955.88;6246968;28;20179;-91
2023/05/18 08:21:40;;;;;;;6.88;3.40;;;;;;;10.55;100.00;101954.34;6245606;28;20112;-91
2023/05/18 08:24:43;;;;;;;13.35;3.47;;;;;;;10.94;100.00;101963.38;6250577;28;20037;-91
2023/05/18 08:27:48;;;;;;;5.45;2.90;;;;;;;11.14;100.00;101959.63;6246954;28;20068;-91
2023/05/18 08:30:50;;;;;;;6.80;3.13;;;;;;;11.21;100.00;101957.50;6248789;28;20045;-90
2023/05/18 08:33:52;;;;;;;7.10;2.95;;;;;;;11.40;100.00;101950.31;6257227;28;20503;-91
2023/05/18 08:36:55;;;;;;;5.85;3.08;;;;;;;11.68;100.00;101943.47;6249984;28;20439;-90
2023/05/18 08:39:58;;;;;;;8.65;3.63;;;;;;;11.97;100.00;101939.09;6239464;28;20435;-90
2023/05/18 08:43:09;;;;;;;8.15;3.20;;;;;;;11.99;100.00;101942.44;6251034;28;20041;-90
2023/05/18 08:46:27;;;;;;;10.35;3.20;;;;;;;11.72;100.00;101931.97;6238185;28;20074;-90
2023/05/18 08:49:30;;;;;;;5.20;3.03;;;;;;;11.39;100.00;101933.09;6252715;28;20048;-90
2023/05/18 08:52:35;;;;;;;7.57;3.70;;;;;;;11.15;100.00;101926.75;6262527;28;20514;-91
2023/05/18 08:55:42;;;;;;;8.55;3.67;;;;;;;11.02;100.00;101926.66;6256230;28;20049;-90
2023/05/18 08:58:49;;;;;;;8.73;3.50;;;;;;;10.99;100.00;101921.66;6263587;28;20041;-90
2023/05/18 09:01:53;;;;;;;7.43;3.00;;;;;;;10.94;100.00;101927.09;6252438;28;20048;-90
2023/05/18 09:04:56;;;;;;;6.70;3.05;;;;;;;10.98;100.00;101936.38;6254845;28;20495;-90
2023/05/18 09:07:58;;;;;;;8.13;3.47;;;;;;;10.94;100.00;101928.84;6257755;28;20068;-90
2023/05/18 09:11:02;;;;;;;8.27;4.95;;;;;;;11.05;100.00;101923.03;6257637;28;20423;-91
2023/05/18 09:14:04;;;;;;;5.53;3.20;;;;;;;11.06;100.00;101922.13;6246141;28;20044;-90
2023/05/18 09:17:07;;;;;;;7.05;3.05;;;;;;;11.04;100.00;101926.56;6248820;28;20128;-90
2023/05/18 09:20:09;;;;;;;5.72;3.10;;;;;;;10.99;100.00;101919.88;6243261;28;20129;-90
2023/05/18 09:23:16;;;;;;;8.50;3.42;;;;;;;10.92;100.00;101923.75;6254678;28;20053;-90
2023/05/18 09:26:20;;;;;;;5.47;3.35;;;;;;;11.09;100.00;101919.38;6250905;28;20098;-90
2023/05/18 09:29:28;;;;;;;7.57;3.45;;;;;;;11.23;100.00;101921.13;6264788;28;20157;-90
2023/05/18 09:32:33;;;;;;;9.52;3.80;;;;;;;11.26;100.00;101923.56;6255186;28;20037;-90
2023/05/18 09:35:36;;;;;;;11.13;4.10;;;;;;;11.46;100.00;101917.19;6255764;28;20143;-90
2023/05/18 09:38:45;;;;;;;9.52;3.65;;;;;;;11.76;100.00;101911.88;6258612;28;20561;-90
2023/05/18 09:41:55;;;;;;;7.50;3.85;;;;;;;12.00;100.00;101912.97;6230182;28;20044;-90
2023/05/18 09:44:57;;;;;;;12.13;4.03;;;;;;;12.14;100.00;101913.88;6246222;28;20037;-90
2023/05/18 09:48:06;;;;;;;4.82;3.30;;;;;;;12.38;100.00;101906.28;6251938;28;20171;-90
2023/05/18 09:51:15;;;;;;;6.07;3.20;;;;;;;12.66;100.00;101913.09;6238189;28;20045;-90
2023/05/18 09:54:17;;;;;;;6.05;3.00;;;;;;;13.07;100.00;101915.56;6250798;28;20071;-90
2023/05/18 09:57:20;;;;;;;6.85;3.33;;;;;;;13.39;100.00;101915.19;6246777;28;20037;-91
2023/05/18 10:00:24;;;;;;;7.18;3.25;;;;;;;13.50;100.00;101907.47;6250728;28;20095;-91
2023/05/18 10:03:38;;;;;;;6.93;3.70;;;;;;;13.34;100.00;101904.22;6247634;28;20064;-90
2023/05/18 10:06:48;;;;;;;8.88;4.00;;;;;;;13.15;100.00;101921.06;6258654;28;20150;-91
2023/05/18 10:10:01;;;;;;;10.55;3.85;;;;;;;13.05;100.00;101914.81;6251880;28;20224;-91
2023/05/18 10:13:03;;;;;;;10.23;3.88;;;;;;;12.96;100.00;101907.63;6253435;28;20064;-92
2023/05/18 10:16:06;;;;;;;8.10;3.50;;;;;;;12.61;100.00;101908.19;6252318;28;20060;-93
2023/05/18 10:19:10;;;;;;;8.48;3.33;;;;;;;12.52;100.00;101902.78;6254794;28;20126;-89
2023/05/18 10:22:15;;;;;;;8.15;3.70;;;;;;;12.51;100.00;101912.34;6255399;28;20040;-87
2023/05/18 10:25:25;;;;;;;8.38;3.65;;;;;;;12.57;100.00;101909.34;6262595;28;20044;-94
2023/05/18 10:28:32;;;;;;;8.18;3.63;;;;;;;12.87;100.00;101905.69;6225628;28;20637;-90
2023/05/18 10:31:36;;;;;;;6.15;3.95;;;;;;;13.09;100.00;101905.03;6246321;28;20052;-90
2023/05/18 10:34:40;;;;;;;15.48;9.93;;;;;;;13.30;100.00;101903.63;6253311;28;20037;-90
2023/05/18 10:37:51;;;;;;;11.18;7.20;;;;;;;13.72;100.00;101898.16;6261405;28;20041;-87
2023/05/18 10:41:00;;;;;;;7.72;4.18;;;;;;;14.39;100.00;101887.28;6248029;28;20143;-87
2023/05/18 10:44:02;;;;;;;8.32;4.00;;;;;;;14.69;100.00;101897.25;6247050;28;20033;-87
2023/05/18 10:47:07;;;;;;;14.88;6.18;;;;;;;14.92;100.00;101892.09;6243553;28;20151;-87
2023/05/18 10:50:09;;;;;;;10.55;5.05;;;;;;;14.84;100.00;101885.66;6241920;28;20558;-87
2023/05/18 10:53:11;;;;;;;22.80;17.55;;;;;;;14.59;97.95;101885.84;6241724;28;20077;-87
2023/05/18 10:56:17;;;;;;;10.13;4.03;;;;;;;14.49;100.00;101882.22;6244421;28;20084;-87
2023/05/18 10:59:21;;;;;;;9.20;4.10;;;;;;;14.28;100.00;101882.84;6251916;28;20085;-87
2023/05/18 11:02:26;;;;;;;11.32;4.18;;;;;;;13.98;100.00;101884.13;6249801;28;20241;-87
2023/05/18 11:05:28;;;;;;;5.45;3.45;;;;;;;13.69;100.00;101875.78;6246606;28;20045;-87
2023/05/18 11:08:30;;;;;;;8.75;3.63;;;;;;;13.59;100.00;101866.97;6250633;28;20047;-87
2023/05/18 11:12:09;;;;;;;8.70;3.88;;;;;;;13.81;100.00;101868.03;6246690;28;20158;-87
2023/05/18 11:15:11;;;;;;;6.68;3.67;;;;;;;13.84;100.00;101863.47;6188482;28;20168;-87
2023/05/18 11:18:14;;;;;;;7.05;3.78;;;;;;;13.78;100.00;101866.50;6186100;28;20101;-87
2023/05/18 11:21:34;;;;;;;7.72;3.50;;;;;;;13.72;100.00;101865.16;6187703;28;20198;-87
2023/05/18 11:24:39;;;;;;;6.72;3.28;;;;;;;14.03;100.00;101862.13;6193082;28;20548;-87
2023/05/18 11:27:41;;;;;;;8.70;3.67;;;;;;;14.72;100.00;101859.69;6189156;28;20332;-87
2023/05/18 11:30:46;;;;;;;7.50;3.50;;;;;;;15.47;100.00;101853.91;6177791;28;20440;-86
2023/05/18 11:33:48;;;;;;;9.68;4.07;;;;;;;15.99;100.00;101852.41;6164570;28;20055;-87
2023/05/18 11:36:54;;;;;;;6.05;3.42;;;;;;;16.35;100.00;101853.00;6188265;28;20488;-87
2023/05/18 11:39:57;;;;;;;5.90;4.03;;;;;;;16.69;93.00;101856.22;6166730;28;20053;-87
2023/05/18 11:43:03;;;;;;;5.05;3.33;;;;;;;16.72;90.81;101850.75;6168448;28;20062;-86
2023/05/18 11:46:17;;;;;;;4.90;3.50;;;;;;;16.78;93.64;101852.06;6188995;28;20047;-86
2023/05/18 11:49:32;;;;;;;7.75;3.58;;;;;;;16.94;90.03;101862.03;6196253;28;20046;-86
2023/05/18 11:52:45;;;;;;;7.45;3.58;;;;;;;16.85;83.48;101847.97;6252991;28;20160;-86
2023/05/18 11:55:51;;;;;;;7.72;4.25;;;;;;;16.82;85.99;101850.84;6227391;28;20928;-86
2023/05/18 11:59:12;;;;;;;7.28;4.10;;;;;;;17.11;89.55;101850.97;6262401;28;20041;-87
2023/05/18 12:02:25;;;;;;;7.55;4.00;;;;;;;17.11;78.43;101850.97;6251344;28;20350;-85
2023/05/18 12:05:31;;;;;;;10.13;3.90;;;;;;;17.27;76.89;101850.50;6251621;28;20531;-85
2023/05/18 12:08:35;;;;;;;9.15;3.85;;;;;;;17.26;72.83;101845.38;6256617;28;20103;-96
2023/05/18 12:11:39;;;;;;;6.72;3.53;;;;;;;17.31;76.83;101841.41;6261747;28;20498;-96
2023/05/18 12:14:41;;;;;;;9.45;3.50;;;;;;;17.57;69.41;101840.94;6259946;28;20072;-95
2023/05/18 12:17:46;;;;;;;5.72;3.33;;;;;;;17.67;71.79;101830.50;6246874;28;20045;-96
2023/05/18 12:20:48;;;;;;;7.82;4.00;;;;;;;17.78;76.64;101830.34;6250955;28;20052;-96
2023/05/18 12:23:58;;;;;;;6.68;3.30;;;;;;;17.88;66.37;101831.22;6257016;28;20052;-96
2023/05/18 12:27:03;;;;;;;6.80;3.25;;;;;;;17.89;75.33;101827.66;6253804;28;20032;-96
2023/05/18 12:30:16;;;;;;;8.38;3.65;;;;;;;17.95;72.46;101831.50;6262970;28;20041;-96
2023/05/18 12:33:20;;;;;;;8.00;3.53;;;;;;;18.11;80.62;101831.78;6254813;28;20517;-96
2023/05/18 12:36:22;;;;;;;7.53;3.60;;;;;;;18.22;73.69;101823.78;6242143;28;20136;-96
2023/05/18 12:39:24;;;;;;;7.18;3.33;;;;;;;18.46;70.75;101827.75;6234383;28;20510;-96
2023/05/18 12:42:29;;;;;;;7.75;3.78;;;;;;;18.66;75.38;101820.66;6249388;28;20063;-96
2023/05/18 12:45:32;;;;;;;7.05;3.67;;;;;;;19.00;75.70;101813.09;6254180;28;20048;-96
2023/05/18 12:48:37;;;;;;;8.10;4.00;;;;;;;19.12;82.03;101809.31;6241481;28;20041;-96
2023/05/18 12:51:39;;;;;;;7.03;3.13;;;;;;;19.34;73.99;101809.91;6256619;28;20123;-96
2023/05/18 12:54:53;;;;;;;8.52;4.22;;;;;;;19.69;69.02;101809.16;6261818;28;20046;-96
2023/05/18 12:58:01;;;;;;;7.75;3.08;;;;;;;19.71;60.18;101803.75;6255544;28;20037;-96
2023/05/18 13:01:11;;;;;;;7.43;4.00;;;;;;;19.70;65.20;101802.09;6263530;28;20057;-96
2023/05/18 13:04:13;;;;;;;5.25;3.13;;;;;;;19.76;70.40;101797.06;6262349;28;20434;-96
2023/05/18 13:07:15;;;;;;;8.38;3.28;;;;;;;19.89;60.34;101804.56;6268541;28;20033;-96
2023/05/18 13:10:19;;;;;;;6.32;3.30;;;;;;;19.92;65.93;101798.19;6261737;28;20037;-96
2023/05/18 13:13:21;;;;;;;8.55;3.55;;;;;;;20.08;65.05;101797.50;6260482;28;20078;-96
2023/05/18 13:16:25;;;;;;;8.88;3.50;;;;;;;20.19;69.55;101808.59;6253372;28;20046;-96
2023/05/18 13:19:42;;;;;;;4.75;3.20;;;;;;;20.15;66.81;101799.38;6233539;28;20200;-96
2023/05/18 13:22:54;;;;;;;5.43;2.65;;;;;;;19.96;68.59;101799.53;6255956;28;20050;-96
2023/05/18 13:25:58;;;;;;;11.75;3.55;;;;;;;19.92;65.84;101798.19;6264505;28;20040;-96
2023/05/18 13:29:10;;;;;;;4.13;2.72;;;;;;;19.86;64.92;101804.88;6247197;28;20191;-96
2023/05/18 13:32:24;;;;;;;5.90;3.20;;;;;;;19.77;62.91;101797.88;6229407;28;20147;-96
2023/05/18 13:35:41;;;;;;;7.68;3.17;;;;;;;19.65;59.68;101797.28;6262313;28;20056;-96
2023/05/18 13:38:45;;;;;;;6.68;3.00;;;;;;;19.55;60.72;101789.47;6271948;28;20041;-96
2023/05/18 13:41:50;;;;;;;8.93;2.85;;;;;;;19.43;69.41;101790.66;6266986;28;20396;-96
2023/05/18 13:45:05;;;;;;;6.75;2.88;;;;;;;19.61;67.89;101788.03;6271570;28;20064;-96
2023/05/18 13:48:13;;;;;;;5.15;3.05;;;;;;;19.82;60.19;101781.69;6259072;28;20574;-96
2023/05/18 13:51:20;;;;;;;4.28;2.78;;;;;;;19.97;60.61;101781.00;6264797;28;20030;-96
2023/05/18 13:54:25;;;;;;;7.03;2.78;;;;;;;20.30;58.78;101777.78;6254880;28;20407;-96
2023/05/18 13:57:35;;;;;;;5.07;2.90;;;;;;;20.74;61.72;101769.81;6255799;28;20044;-96
2023/05/18 14:00:37;;;;;;;7.18;3.15;;;;;;;21.20;60.58;101771.16;6247907;28;20041;-96
2023/05/18 14:03:40;;;;;;;7.88;2.90;;;;;;;21.49;56.13;101781.31;6259726;28;20055;-96
2023/05/18 14:06:44;;;;;;;7.25;3.10;;;;;;;21.59;52.55;101778.53;6276226;28;20612;-96
2023/05/18 14:09:48;;;;;;;6.57;2.95;;;;;;;21.46;49.06;101765.78;6269527;28;20033;-96
2023/05/18 14:12:53;;;;;;;6.18;2.90;;;;;;;21.03;50.69;101761.56;6264881;28;20044;-96
2023/05/18 14:15:55;;;;;;;7.00;2.92;;;;;;;20.58;52.92;101760.06;6250260;28;20071;-96